sensor_id;sensor_type;location;lat;lon;timestamp;P1;durP1;ratioP1;P2;durP2;ratioP2
56239;SDS011;42154;51.992;5.896;2023-04-03T00:01:15;3.20;;;1.50;;
56239;SDS011;42154;51.992;5.896;2023-04-03T00:03:41;3.60;;;1.60;;
56239;SDS011;42154;51.992;5.896;2023-04-03T00:06:07;3.60;;;1.73;;
56239;SDS011;42154;51.992;5.896;2023-04-03T00:08:35;4.70;;;1.85;;
56239;SDS011;42154;51.992;5.896;2023-04-03T00:11:01;4.60;;;1.50;;
56239;SDS011;42154;51.992;5.896;2023-04-03T00:13:27;4.00;;;1.80;;
56239;SDS011;42154;51.992;5.896;2023-04-03T00:15:53;2.72;;;1.50;;
56239;SDS011;42154;51.992;5.896;2023-04-03T00:18:19;4.50;;;1.65;;
56239;SDS011;42154;51.992;5.896;2023-04-03T00:20:45;3.15;;;1.30;;
56239;SDS011;42154;51.992;5.896;2023-04-03T00:23:11;3.60;;;1.20;;
56239;SDS011;42154;51.992;5.896;2023-04-03T00:25:37;3.05;;;1.42;;
56239;SDS011;42154;51.992;5.896;2023-04-03T00:28:03;3.33;;;1.58;;
56239;SDS011;42154;51.992;5.896;2023-04-03T00:30:30;3.55;;;1.67;;
56239;SDS011;42154;51.992;5.896;2023-04-03T00:32:56;3.28;;;1.58;;
56239;SDS011;42154;51.992;5.896;2023-04-03T00:35:22;3.38;;;1.67;;
56239;SDS011;42154;51.992;5.896;2023-04-03T00:37:52;4.28;;;1.67;;
56239;SDS011;42154;51.992;5.896;2023-04-03T00:40:18;2.85;;;1.30;;
56239;SDS011;42154;51.992;5.896;2023-04-03T00:42:46;3.03;;;1.48;;
56239;SDS011;42154;51.992;5.896;2023-04-03T00:47:50;3.40;;;1.73;;
56239;SDS011;42154;51.992;5.896;2023-04-03T00:50:16;5.15;;;1.42;;
56239;SDS011;42154;51.992;5.896;2023-04-03T00:52:42;2.78;;;1.50;;
56239;SDS011;42154;51.992;5.896;2023-04-03T00:55:12;3.25;;;1.50;;
56239;SDS011;42154;51.992;5.896;2023-04-03T00:57:39;2.60;;;1.50;;
56239;SDS011;42154;51.992;5.896;2023-04-03T01:00:07;3.30;;;1.42;;
56239;SDS011;42154;51.992;5.896;2023-04-03T01:02:35;5.13;;;1.35;;
56239;SDS011;42154;51.992;5.896;2023-04-03T01:05:01;2.75;;;1.50;;
56239;SDS011;42154;51.992;5.896;2023-04-03T01:07:29;4.28;;;1.58;;
56239;SDS011;42154;51.992;5.896;2023-04-03T01:09:56;3.70;;;1.70;;
56239;SDS011;42154;51.992;5.896;2023-04-03T01:14:52;2.92;;;1.48;;
56239;SDS011;42154;51.992;5.896;2023-04-03T01:25:35;4.35;;;1.92;;
56239;SDS011;42154;51.992;5.896;2023-04-03T01:28:04;6.65;;;2.13;;
56239;SDS011;42154;51.992;5.896;2023-04-03T01:30:33;5.57;;;1.38;;
56239;SDS011;42154;51.992;5.896;2023-04-03T01:33:01;3.38;;;1.45;;
56239;SDS011;42154;51.992;5.896;2023-04-03T01:35:27;3.25;;;1.30;;
56239;SDS011;42154;51.992;5.896;2023-04-03T01:37:53;3.50;;;1.70;;
56239;SDS011;42154;51.992;5.896;2023-04-03T01:40:19;5.07;;;1.60;;
56239;SDS011;42154;51.992;5.896;2023-04-03T01:42:45;2.33;;;1.50;;
56239;SDS011;42154;51.992;5.896;2023-04-03T01:45:11;4.95;;;1.73;;
56239;SDS011;42154;51.992;5.896;2023-04-03T01:47:37;4.43;;;1.40;;
56239;SDS011;42154;51.992;5.896;2023-04-03T01:50:04;5.28;;;1.90;;
56239;SDS011;42154;51.992;5.896;2023-04-03T01:52:32;4.90;;;1.95;;
56239;SDS011;42154;51.992;5.896;2023-04-03T01:54:58;5.47;;;2.15;;
56239;SDS011;42154;51.992;5.896;2023-04-03T01:57:24;2.92;;;1.80;;
56239;SDS011;42154;51.992;5.896;2023-04-03T01:59:50;3.45;;;1.50;;
56239;SDS011;42154;51.992;5.896;2023-04-03T02:02:16;4.28;;;1.40;;
56239;SDS011;42154;51.992;5.896;2023-04-03T02:04:42;2.00;;;1.25;;
56239;SDS011;42154;51.992;5.896;2023-04-03T02:07:08;5.78;;;1.60;;
56239;SDS011;42154;51.992;5.896;2023-04-03T02:09:34;4.25;;;1.65;;
56239;SDS011;42154;51.992;5.896;2023-04-03T02:12:00;2.88;;;1.55;;
56239;SDS011;42154;51.992;5.896;2023-04-03T02:14:26;7.20;;;2.05;;
56239;SDS011;42154;51.992;5.896;2023-04-03T02:16:52;3.38;;;1.55;;
56239;SDS011;42154;51.992;5.896;2023-04-03T02:19:21;3.45;;;1.60;;
56239;SDS011;42154;51.992;5.896;2023-04-03T02:21:47;5.90;;;1.50;;
56239;SDS011;42154;51.992;5.896;2023-04-03T02:24:14;5.80;;;2.30;;
56239;SDS011;42154;51.992;5.896;2023-04-03T02:26:39;6.03;;;2.03;;
56239;SDS011;42154;51.992;5.896;2023-04-03T02:29:05;5.25;;;1.83;;
56239;SDS011;42154;51.992;5.896;2023-04-03T02:31:31;7.90;;;2.15;;
56239;SDS011;42154;51.992;5.896;2023-04-03T02:33:59;4.30;;;1.90;;
56239;SDS011;42154;51.992;5.896;2023-04-03T02:36:25;4.57;;;1.90;;
56239;SDS011;42154;51.992;5.896;2023-04-03T02:38:55;4.45;;;1.52;;
56239;SDS011;42154;51.992;5.896;2023-04-03T02:41:20;4.43;;;1.30;;
56239;SDS011;42154;51.992;5.896;2023-04-03T02:43:47;5.68;;;2.20;;
56239;SDS011;42154;51.992;5.896;2023-04-03T02:46:14;4.28;;;1.48;;
56239;SDS011;42154;51.992;5.896;2023-04-03T02:48:41;7.57;;;2.00;;
56239;SDS011;42154;51.992;5.896;2023-04-03T02:51:06;4.65;;;1.85;;
56239;SDS011;42154;51.992;5.896;2023-04-03T02:53:32;4.85;;;1.75;;
56239;SDS011;42154;51.992;5.896;2023-04-03T02:56:04;3.38;;;1.75;;
56239;SDS011;42154;51.992;5.896;2023-04-03T02:58:30;4.85;;;1.88;;
56239;SDS011;42154;51.992;5.896;2023-04-03T03:00:57;5.32;;;2.13;;
56239;SDS011;42154;51.992;5.896;2023-04-03T03:03:23;3.45;;;1.73;;
56239;SDS011;42154;51.992;5.896;2023-04-03T03:05:49;5.05;;;2.00;;
56239;SDS011;42154;51.992;5.896;2023-04-03T03:08:14;7.75;;;2.00;;
56239;SDS011;42154;51.992;5.896;2023-04-03T03:10:40;6.68;;;2.03;;
56239;SDS011;42154;51.992;5.896;2023-04-03T03:13:06;4.70;;;1.52;;
56239;SDS011;42154;51.992;5.896;2023-04-03T03:15:32;4.20;;;1.90;;
56239;SDS011;42154;51.992;5.896;2023-04-03T03:17:57;5.88;;;2.10;;
56239;SDS011;42154;51.992;5.896;2023-04-03T03:20:23;4.63;;;1.83;;
56239;SDS011;42154;51.992;5.896;2023-04-03T03:22:49;4.97;;;1.67;;
56239;SDS011;42154;51.992;5.896;2023-04-03T03:25:15;3.72;;;1.60;;
56239;SDS011;42154;51.992;5.896;2023-04-03T03:27:40;6.10;;;2.22;;
56239;SDS011;42154;51.992;5.896;2023-04-03T03:30:06;6.43;;;1.90;;
56239;SDS011;42154;51.992;5.896;2023-04-03T03:32:33;3.28;;;1.65;;
56239;SDS011;42154;51.992;5.896;2023-04-03T03:35:00;4.93;;;1.85;;
56239;SDS011;42154;51.992;5.896;2023-04-03T03:37:26;4.30;;;1.67;;
56239;SDS011;42154;51.992;5.896;2023-04-03T03:39:52;4.60;;;1.42;;
56239;SDS011;42154;51.992;5.896;2023-04-03T03:42:18;3.67;;;1.90;;
56239;SDS011;42154;51.992;5.896;2023-04-03T03:44:44;4.85;;;1.75;;
56239;SDS011;42154;51.992;5.896;2023-04-03T03:47:10;4.15;;;1.98;;
56239;SDS011;42154;51.992;5.896;2023-04-03T03:49:37;5.35;;;2.03;;
56239;SDS011;42154;51.992;5.896;2023-04-03T03:52:02;2.72;;;1.48;;
56239;SDS011;42154;51.992;5.896;2023-04-03T03:54:28;4.93;;;2.15;;
56239;SDS011;42154;51.992;5.896;2023-04-03T03:56:54;4.18;;;1.73;;
56239;SDS011;42154;51.992;5.896;2023-04-03T03:59:22;4.00;;;1.80;;
56239;SDS011;42154;51.992;5.896;2023-04-03T04:01:48;5.63;;;1.67;;
56239;SDS011;42154;51.992;5.896;2023-04-03T04:04:14;4.93;;;1.83;;
56239;SDS011;42154;51.992;5.896;2023-04-03T04:06:40;5.32;;;1.90;;
56239;SDS011;42154;51.992;5.896;2023-04-03T04:09:08;5.55;;;2.08;;
56239;SDS011;42154;51.992;5.896;2023-04-03T04:11:34;5.25;;;1.60;;
56239;SDS011;42154;51.992;5.896;2023-04-03T04:14:01;3.15;;;1.83;;
56239;SDS011;42154;51.992;5.896;2023-04-03T04:16:28;6.40;;;1.88;;
56239;SDS011;42154;51.992;5.896;2023-04-03T04:18:57;7.78;;;2.10;;
56239;SDS011;42154;51.992;5.896;2023-04-03T04:21:23;4.03;;;2.17;;
56239;SDS011;42154;51.992;5.896;2023-04-03T04:23:51;6.43;;;2.05;;
56239;SDS011;42154;51.992;5.896;2023-04-03T04:26:18;3.45;;;1.90;;
56239;SDS011;42154;51.992;5.896;2023-04-03T04:28:43;6.05;;;2.05;;
56239;SDS011;42154;51.992;5.896;2023-04-03T04:31:10;4.47;;;1.90;;
56239;SDS011;42154;51.992;5.896;2023-04-03T04:33:35;3.22;;;1.60;;
56239;SDS011;42154;51.992;5.896;2023-04-03T04:36:03;4.40;;;1.85;;
56239;SDS011;42154;51.992;5.896;2023-04-03T04:38:29;6.63;;;1.98;;
56239;SDS011;42154;51.992;5.896;2023-04-03T04:40:56;4.28;;;1.73;;
56239;SDS011;42154;51.992;5.896;2023-04-03T04:43:22;4.07;;;1.85;;
56239;SDS011;42154;51.992;5.896;2023-04-03T04:45:59;5.60;;;1.92;;
56239;SDS011;42154;51.992;5.896;2023-04-03T04:48:33;5.50;;;1.90;;
56239;SDS011;42154;51.992;5.896;2023-04-03T04:51:00;9.07;;;1.85;;
56239;SDS011;42154;51.992;5.896;2023-04-03T04:53:27;5.40;;;1.85;;
56239;SDS011;42154;51.992;5.896;2023-04-03T04:55:53;4.82;;;2.15;;
56239;SDS011;42154;51.992;5.896;2023-04-03T04:58:20;5.28;;;2.08;;
56239;SDS011;42154;51.992;5.896;2023-04-03T05:00:46;4.13;;;1.85;;
56239;SDS011;42154;51.992;5.896;2023-04-03T05:03:12;5.57;;;1.90;;
56239;SDS011;42154;51.992;5.896;2023-04-03T05:05:38;4.10;;;1.90;;
56239;SDS011;42154;51.992;5.896;2023-04-03T05:08:05;3.85;;;1.70;;
56239;SDS011;42154;51.992;5.896;2023-04-03T05:10:31;6.15;;;2.00;;
56239;SDS011;42154;51.992;5.896;2023-04-03T05:12:57;2.38;;;1.20;;
56239;SDS011;42154;51.992;5.896;2023-04-03T05:15:23;6.97;;;2.13;;
56239;SDS011;42154;51.992;5.896;2023-04-03T05:17:49;5.68;;;2.35;;
56239;SDS011;42154;51.992;5.896;2023-04-03T05:20:16;5.85;;;1.98;;
56239;SDS011;42154;51.992;5.896;2023-04-03T05:22:44;4.88;;;1.95;;
56239;SDS011;42154;51.992;5.896;2023-04-03T05:25:10;6.03;;;1.83;;
56239;SDS011;42154;51.992;5.896;2023-04-03T05:27:37;4.07;;;1.77;;
56239;SDS011;42154;51.992;5.896;2023-04-03T05:30:03;5.18;;;2.10;;
56239;SDS011;42154;51.992;5.896;2023-04-03T05:32:31;9.15;;;1.83;;
56239;SDS011;42154;51.992;5.896;2023-04-03T05:35:09;8.02;;;1.95;;
56239;SDS011;42154;51.992;5.896;2023-04-03T05:37:35;5.80;;;1.90;;
56239;SDS011;42154;51.992;5.896;2023-04-03T05:40:02;5.55;;;1.60;;
56239;SDS011;42154;51.992;5.896;2023-04-03T05:42:29;5.22;;;2.00;;
56239;SDS011;42154;51.992;5.896;2023-04-03T05:44:55;5.57;;;1.70;;
56239;SDS011;42154;51.992;5.896;2023-04-03T05:47:20;5.13;;;1.83;;
56239;SDS011;42154;51.992;5.896;2023-04-03T05:49:47;8.38;;;2.10;;
56239;SDS011;42154;51.992;5.896;2023-04-03T05:52:31;5.13;;;2.00;;
56239;SDS011;42154;51.992;5.896;2023-04-03T05:55:01;6.55;;;2.00;;
56239;SDS011;42154;51.992;5.896;2023-04-03T05:57:29;6.70;;;1.90;;
56239;SDS011;42154;51.992;5.896;2023-04-03T05:59:55;7.32;;;2.42;;
56239;SDS011;42154;51.992;5.896;2023-04-03T06:02:23;4.22;;;1.77;;
56239;SDS011;42154;51.992;5.896;2023-04-03T06:04:50;4.80;;;1.77;;
56239;SDS011;42154;51.992;5.896;2023-04-03T06:07:18;5.40;;;2.10;;
56239;SDS011;42154;51.992;5.896;2023-04-03T06:09:51;6.03;;;2.03;;
56239;SDS011;42154;51.992;5.896;2023-04-03T06:12:17;7.07;;;2.25;;
56239;SDS011;42154;51.992;5.896;2023-04-03T06:14:44;6.18;;;2.22;;
56239;SDS011;42154;51.992;5.896;2023-04-03T06:17:10;5.68;;;1.80;;
56239;SDS011;42154;51.992;5.896;2023-04-03T06:19:37;6.40;;;1.85;;
56239;SDS011;42154;51.992;5.896;2023-04-03T06:22:03;8.30;;;2.17;;
56239;SDS011;42154;51.992;5.896;2023-04-03T06:24:29;4.38;;;2.00;;
56239;SDS011;42154;51.992;5.896;2023-04-03T06:26:55;5.88;;;2.20;;
56239;SDS011;42154;51.992;5.896;2023-04-03T06:29:22;6.30;;;2.15;;
56239;SDS011;42154;51.992;5.896;2023-04-03T06:31:48;6.38;;;2.30;;
56239;SDS011;42154;51.992;5.896;2023-04-03T06:34:14;4.72;;;2.08;;
56239;SDS011;42154;51.992;5.896;2023-04-03T06:36:40;6.95;;;2.08;;
56239;SDS011;42154;51.992;5.896;2023-04-03T06:39:07;3.60;;;1.73;;
56239;SDS011;42154;51.992;5.896;2023-04-03T06:41:38;5.40;;;1.88;;
56239;SDS011;42154;51.992;5.896;2023-04-03T06:44:04;7.40;;;1.85;;
56239;SDS011;42154;51.992;5.896;2023-04-03T06:46:30;6.95;;;2.00;;
56239;SDS011;42154;51.992;5.896;2023-04-03T06:48:55;8.30;;;2.00;;
56239;SDS011;42154;51.992;5.896;2023-04-03T06:51:22;5.03;;;1.80;;
56239;SDS011;42154;51.992;5.896;2023-04-03T06:53:50;5.28;;;1.80;;
56239;SDS011;42154;51.992;5.896;2023-04-03T06:56:17;4.97;;;1.65;;
56239;SDS011;42154;51.992;5.896;2023-04-03T06:58:43;7.00;;;1.77;;
56239;SDS011;42154;51.992;5.896;2023-04-03T07:01:10;4.90;;;1.85;;
56239;SDS011;42154;51.992;5.896;2023-04-03T07:03:37;4.25;;;1.77;;
56239;SDS011;42154;51.992;5.896;2023-04-03T07:06:07;4.80;;;2.05;;
56239;SDS011;42154;51.992;5.896;2023-04-03T07:08:35;7.50;;;1.75;;
56239;SDS011;42154;51.992;5.896;2023-04-03T07:11:01;3.03;;;1.48;;
56239;SDS011;42154;51.992;5.896;2023-04-03T07:13:27;6.50;;;2.10;;
56239;SDS011;42154;51.992;5.896;2023-04-03T07:15:54;5.65;;;1.55;;
56239;SDS011;42154;51.992;5.896;2023-04-03T07:18:20;3.95;;;1.88;;
56239;SDS011;42154;51.992;5.896;2023-04-03T07:20:46;5.93;;;1.73;;
56239;SDS011;42154;51.992;5.896;2023-04-03T07:23:12;3.67;;;1.42;;
56239;SDS011;42154;51.992;5.896;2023-04-03T07:25:48;4.93;;;1.38;;
56239;SDS011;42154;51.992;5.896;2023-04-03T07:28:16;5.18;;;1.63;;
56239;SDS011;42154;51.992;5.896;2023-04-03T07:30:43;3.90;;;1.60;;
56239;SDS011;42154;51.992;5.896;2023-04-03T07:33:26;3.85;;;1.30;;
56239;SDS011;42154;51.992;5.896;2023-04-03T07:35:53;5.85;;;1.80;;
56239;SDS011;42154;51.992;5.896;2023-04-03T07:38:18;2.92;;;1.40;;
56239;SDS011;42154;51.992;5.896;2023-04-03T07:40:45;5.22;;;1.55;;
56239;SDS011;42154;51.992;5.896;2023-04-03T07:43:12;6.50;;;1.40;;
56239;SDS011;42154;51.992;5.896;2023-04-03T07:45:38;4.75;;;1.27;;
56239;SDS011;42154;51.992;5.896;2023-04-03T07:48:04;4.93;;;1.42;;
56239;SDS011;42154;51.992;5.896;2023-04-03T07:50:30;5.68;;;1.30;;
56239;SDS011;42154;51.992;5.896;2023-04-03T07:52:57;3.92;;;1.60;;
56239;SDS011;42154;51.992;5.896;2023-04-03T07:55:23;3.42;;;1.15;;
56239;SDS011;42154;51.992;5.896;2023-04-03T07:57:50;3.10;;;1.00;;
56239;SDS011;42154;51.992;5.896;2023-04-03T08:00:16;2.25;;;1.08;;
56239;SDS011;42154;51.992;5.896;2023-04-03T08:02:43;3.22;;;1.50;;
56239;SDS011;42154;51.992;5.896;2023-04-03T08:05:10;4.60;;;1.60;;
56239;SDS011;42154;51.992;5.896;2023-04-03T08:07:39;3.17;;;1.48;;
56239;SDS011;42154;51.992;5.896;2023-04-03T08:10:05;4.03;;;1.30;;
56239;SDS011;42154;51.992;5.896;2023-04-03T08:12:31;4.03;;;1.33;;
56239;SDS011;42154;51.992;5.896;2023-04-03T08:14:57;3.47;;;1.30;;
56239;SDS011;42154;51.992;5.896;2023-04-03T08:17:25;1.60;;;0.82;;
56239;SDS011;42154;51.992;5.896;2023-04-03T08:19:51;4.03;;;1.00;;
56239;SDS011;42154;51.992;5.896;2023-04-03T08:22:17;3.70;;;1.20;;
56239;SDS011;42154;51.992;5.896;2023-04-03T08:24:42;2.50;;;0.80;;
56239;SDS011;42154;51.992;5.896;2023-04-03T08:27:08;4.22;;;1.20;;
56239;SDS011;42154;51.992;5.896;2023-04-03T08:29:34;4.03;;;1.10;;
56239;SDS011;42154;51.992;5.896;2023-04-03T08:32:03;4.20;;;1.20;;
56239;SDS011;42154;51.992;5.896;2023-04-03T08:34:29;1.63;;;0.95;;
56239;SDS011;42154;51.992;5.896;2023-04-03T08:36:56;2.55;;;0.98;;
56239;SDS011;42154;51.992;5.896;2023-04-03T08:39:21;5.20;;;0.90;;
56239;SDS011;42154;51.992;5.896;2023-04-03T08:41:47;3.88;;;0.85;;
56239;SDS011;42154;51.992;5.896;2023-04-03T08:46:47;2.67;;;0.80;;
56239;SDS011;42154;51.992;5.896;2023-04-03T08:49:26;2.60;;;0.73;;
56239;SDS011;42154;51.992;5.896;2023-04-03T08:51:59;2.58;;;0.80;;
56239;SDS011;42154;51.992;5.896;2023-04-03T08:54:33;2.40;;;0.70;;
56239;SDS011;42154;51.992;5.896;2023-04-03T08:57:03;3.05;;;0.80;;
56239;SDS011;42154;51.992;5.896;2023-04-03T08:59:35;1.42;;;0.55;;
56239;SDS011;42154;51.992;5.896;2023-04-03T09:02:04;1.63;;;0.52;;
56239;SDS011;42154;51.992;5.896;2023-04-03T09:04:51;0.90;;;0.35;;
56239;SDS011;42154;51.992;5.896;2023-04-03T09:07:21;1.13;;;0.50;;
56239;SDS011;42154;51.992;5.896;2023-04-03T09:09:55;2.35;;;0.50;;
56239;SDS011;42154;51.992;5.896;2023-04-03T09:12:34;0.93;;;0.50;;
56239;SDS011;42154;51.992;5.896;2023-04-03T09:15:17;0.70;;;0.30;;
56239;SDS011;42154;51.992;5.896;2023-04-03T09:22:41;1.23;;;0.38;;
56239;SDS011;42154;51.992;5.896;2023-04-03T09:25:22;1.25;;;0.43;;
56239;SDS011;42154;51.992;5.896;2023-04-03T09:27:51;1.13;;;0.43;;
56239;SDS011;42154;51.992;5.896;2023-04-03T09:30:18;1.50;;;0.60;;
56239;SDS011;42154;51.992;5.896;2023-04-03T09:32:47;2.25;;;0.40;;
56239;SDS011;42154;51.992;5.896;2023-04-03T09:35:19;1.38;;;0.40;;
56239;SDS011;42154;51.992;5.896;2023-04-03T09:37:47;0.90;;;0.40;;
56239;SDS011;42154;51.992;5.896;2023-04-03T09:40:28;2.80;;;0.30;;
56239;SDS011;42154;51.992;5.896;2023-04-03T09:42:57;1.05;;;0.30;;
56239;SDS011;42154;51.992;5.896;2023-04-03T09:45:26;2.25;;;0.50;;
56239;SDS011;42154;51.992;5.896;2023-04-03T09:50:38;1.45;;;0.52;;
56239;SDS011;42154;51.992;5.896;2023-04-03T09:56:26;0.50;;;0.30;;
56239;SDS011;42154;51.992;5.896;2023-04-03T10:01:30;0.50;;;0.40;;
56239;SDS011;42154;51.992;5.896;2023-04-03T10:04:05;0.88;;;0.45;;
56239;SDS011;42154;51.992;5.896;2023-04-03T10:06:35;0.55;;;0.30;;
56239;SDS011;42154;51.992;5.896;2023-04-03T10:09:12;1.08;;;0.43;;
56239;SDS011;42154;51.992;5.896;2023-04-03T10:14:33;3.00;;;0.55;;
56239;SDS011;42154;51.992;5.896;2023-04-03T10:19:53;1.65;;;0.40;;
56239;SDS011;42154;51.992;5.896;2023-04-03T10:22:31;1.48;;;0.63;;
56239;SDS011;42154;51.992;5.896;2023-04-03T10:28:16;1.07;;;0.47;;
56239;SDS011;42154;51.992;5.896;2023-04-03T10:33:56;1.17;;;0.43;;
56239;SDS011;42154;51.992;5.896;2023-04-03T10:36:45;0.95;;;0.65;;
56239;SDS011;42154;51.992;5.896;2023-04-03T10:42:11;1.98;;;0.65;;
56239;SDS011;42154;51.992;5.896;2023-04-03T10:57:45;2.03;;;0.73;;
56239;SDS011;42154;51.992;5.896;2023-04-03T11:00:15;0.93;;;0.50;;
56239;SDS011;42154;51.992;5.896;2023-04-03T11:02:54;1.20;;;0.60;;
56239;SDS011;42154;51.992;5.896;2023-04-03T11:05:37;1.80;;;0.60;;
56239;SDS011;42154;51.992;5.896;2023-04-03T11:08:11;0.82;;;0.60;;
56239;SDS011;42154;51.992;5.896;2023-04-03T11:11:06;6.70;;;0.90;;
56239;SDS011;42154;51.992;5.896;2023-04-03T11:13:44;1.85;;;0.80;;
56239;SDS011;42154;51.992;5.896;2023-04-03T11:16:18;2.20;;;0.70;;
56239;SDS011;42154;51.992;5.896;2023-04-03T11:18:59;1.88;;;0.80;;
56239;SDS011;42154;51.992;5.896;2023-04-03T11:21:37;1.90;;;0.88;;
56239;SDS011;42154;51.992;5.896;2023-04-03T11:24:15;1.65;;;0.73;;
56239;SDS011;42154;51.992;5.896;2023-04-03T11:26:45;2.80;;;0.80;;
56239;SDS011;42154;51.992;5.896;2023-04-03T11:29:14;2.00;;;0.90;;
56239;SDS011;42154;51.992;5.896;2023-04-03T11:34:33;2.70;;;0.80;;
56239;SDS011;42154;51.992;5.896;2023-04-03T11:37:12;1.67;;;0.60;;
56239;SDS011;42154;51.992;5.896;2023-04-03T11:42:45;4.68;;;0.68;;
56239;SDS011;42154;51.992;5.896;2023-04-03T11:47:56;2.08;;;0.68;;
56239;SDS011;42154;51.992;5.896;2023-04-03T11:58:16;3.75;;;0.70;;
56239;SDS011;42154;51.992;5.896;2023-04-03T12:05:52;1.70;;;0.57;;
56239;SDS011;42154;51.992;5.896;2023-04-03T12:16:07;1.65;;;0.50;;
56239;SDS011;42154;51.992;5.896;2023-04-03T12:19:33;2.00;;;0.60;;
56239;SDS011;42154;51.992;5.896;2023-04-03T12:22:12;2.00;;;0.60;;
56239;SDS011;42154;51.992;5.896;2023-04-03T12:24:41;3.03;;;0.60;;
56239;SDS011;42154;51.992;5.896;2023-04-03T12:27:22;2.47;;;0.60;;
56239;SDS011;42154;51.992;5.896;2023-04-03T12:32:35;1.77;;;0.63;;
56239;SDS011;42154;51.992;5.896;2023-04-03T12:35:21;2.38;;;0.80;;
56239;SDS011;42154;51.992;5.896;2023-04-03T12:46:37;2.35;;;0.77;;
56239;SDS011;42154;51.992;5.896;2023-04-03T12:51:51;3.40;;;0.68;;
56239;SDS011;42154;51.992;5.896;2023-04-03T12:54:36;1.48;;;0.70;;
56239;SDS011;42154;51.992;5.896;2023-04-03T12:57:09;2.10;;;0.90;;
56239;SDS011;42154;51.992;5.896;2023-04-03T12:59:42;3.03;;;0.80;;
56239;SDS011;42154;51.992;5.896;2023-04-03T13:02:30;2.20;;;0.70;;
56239;SDS011;42154;51.992;5.896;2023-04-03T13:04:59;1.80;;;0.70;;
56239;SDS011;42154;51.992;5.896;2023-04-03T13:07:32;1.60;;;0.80;;
56239;SDS011;42154;51.992;5.896;2023-04-03T13:12:34;2.10;;;0.60;;
56239;SDS011;42154;51.992;5.896;2023-04-03T13:15:15;4.82;;;0.90;;
56239;SDS011;42154;51.992;5.896;2023-04-03T13:17:48;1.83;;;0.60;;
56239;SDS011;42154;51.992;5.896;2023-04-03T13:22:53;2.67;;;1.13;;
56239;SDS011;42154;51.992;5.896;2023-04-03T13:25:43;1.15;;;0.60;;
56239;SDS011;42154;51.992;5.896;2023-04-03T13:28:11;3.08;;;0.95;;
56239;SDS011;42154;51.992;5.896;2023-04-03T13:30:40;3.13;;;0.90;;
56239;SDS011;42154;51.992;5.896;2023-04-03T13:33:21;2.13;;;0.90;;
56239;SDS011;42154;51.992;5.896;2023-04-03T13:35:54;2.17;;;0.88;;
56239;SDS011;42154;51.992;5.896;2023-04-03T13:38:28;2.13;;;1.08;;
56239;SDS011;42154;51.992;5.896;2023-04-03T13:41:02;2.05;;;0.93;;
56239;SDS011;42154;51.992;5.896;2023-04-03T13:43:48;2.38;;;1.00;;
56239;SDS011;42154;51.992;5.896;2023-04-03T13:48:49;2.45;;;0.88;;
56239;SDS011;42154;51.992;5.896;2023-04-03T13:51:24;2.97;;;1.02;;
56239;SDS011;42154;51.992;5.896;2023-04-03T13:53:53;2.35;;;0.88;;
56239;SDS011;42154;51.992;5.896;2023-04-03T13:56:34;2.63;;;1.17;;
56239;SDS011;42154;51.992;5.896;2023-04-03T14:01:40;3.40;;;1.00;;
56239;SDS011;42154;51.992;5.896;2023-04-03T14:04:12;2.63;;;0.90;;
56239;SDS011;42154;51.992;5.896;2023-04-03T14:06:38;4.10;;;1.00;;
56239;SDS011;42154;51.992;5.896;2023-04-03T14:09:04;1.65;;;0.93;;
56239;SDS011;42154;51.992;5.896;2023-04-03T14:11:30;3.65;;;1.00;;
56239;SDS011;42154;51.992;5.896;2023-04-03T14:14:00;2.45;;;1.05;;
56239;SDS011;42154;51.992;5.896;2023-04-03T14:16:31;4.35;;;0.90;;
56239;SDS011;42154;51.992;5.896;2023-04-03T14:19:02;2.05;;;1.00;;
56239;SDS011;42154;51.992;5.896;2023-04-03T14:21:28;2.88;;;0.93;;
56239;SDS011;42154;51.992;5.896;2023-04-03T14:23:54;3.33;;;1.25;;
56239;SDS011;42154;51.992;5.896;2023-04-03T14:26:21;3.53;;;1.02;;
56239;SDS011;42154;51.992;5.896;2023-04-03T14:28:49;2.55;;;1.13;;
56239;SDS011;42154;51.992;5.896;2023-04-03T14:31:17;1.98;;;0.70;;
56239;SDS011;42154;51.992;5.896;2023-04-03T14:33:43;2.55;;;1.00;;
56239;SDS011;42154;51.992;5.896;2023-04-03T14:36:13;2.00;;;0.85;;
56239;SDS011;42154;51.992;5.896;2023-04-03T14:38:40;3.10;;;1.20;;
56239;SDS011;42154;51.992;5.896;2023-04-03T14:41:07;2.92;;;1.13;;
56239;SDS011;42154;51.992;5.896;2023-04-03T14:43:35;4.47;;;1.10;;
56239;SDS011;42154;51.992;5.896;2023-04-03T14:46:01;2.05;;;0.90;;
56239;SDS011;42154;51.992;5.896;2023-04-03T14:48:27;3.20;;;1.02;;
56239;SDS011;42154;51.992;5.896;2023-04-03T14:50:55;5.32;;;2.60;;
56239;SDS011;42154;51.992;5.896;2023-04-03T14:53:20;3.92;;;1.52;;
56239;SDS011;42154;51.992;5.896;2023-04-03T14:55:51;2.63;;;1.52;;
56239;SDS011;42154;51.992;5.896;2023-04-03T14:58:18;3.85;;;1.20;;
56239;SDS011;42154;51.992;5.896;2023-04-03T15:00:46;3.50;;;1.25;;
56239;SDS011;42154;51.992;5.896;2023-04-03T15:03:17;4.55;;;2.15;;
56239;SDS011;42154;51.992;5.896;2023-04-03T15:05:45;4.53;;;1.60;;
56239;SDS011;42154;51.992;5.896;2023-04-03T15:08:23;2.22;;;1.10;;
56239;SDS011;42154;51.992;5.896;2023-04-03T15:10:51;3.83;;;1.40;;
56239;SDS011;42154;51.992;5.896;2023-04-03T15:13:18;3.15;;;1.27;;
56239;SDS011;42154;51.992;5.896;2023-04-03T15:15:44;2.25;;;0.82;;
56239;SDS011;42154;51.992;5.896;2023-04-03T15:18:14;3.38;;;0.98;;
56239;SDS011;42154;51.992;5.896;2023-04-03T15:20:43;2.92;;;1.20;;
56239;SDS011;42154;51.992;5.896;2023-04-03T15:23:10;2.92;;;1.30;;
56239;SDS011;42154;51.992;5.896;2023-04-03T15:25:42;3.03;;;1.27;;
56239;SDS011;42154;51.992;5.896;2023-04-03T15:28:11;2.03;;;1.00;;
56239;SDS011;42154;51.992;5.896;2023-04-03T15:30:47;3.00;;;1.30;;
56239;SDS011;42154;51.992;5.896;2023-04-03T15:33:12;3.45;;;1.80;;
56239;SDS011;42154;51.992;5.896;2023-04-03T15:35:38;4.18;;;1.48;;
56239;SDS011;42154;51.992;5.896;2023-04-03T15:38:04;3.53;;;1.23;;
56239;SDS011;42154;51.992;5.896;2023-04-03T15:40:30;3.33;;;1.35;;
56239;SDS011;42154;51.992;5.896;2023-04-03T15:42:56;3.63;;;1.45;;
56239;SDS011;42154;51.992;5.896;2023-04-03T15:45:22;2.72;;;0.98;;
56239;SDS011;42154;51.992;5.896;2023-04-03T15:47:47;2.85;;;0.88;;
56239;SDS011;42154;51.992;5.896;2023-04-03T15:50:13;2.33;;;0.90;;
56239;SDS011;42154;51.992;5.896;2023-04-03T15:52:39;4.82;;;1.13;;
56239;SDS011;42154;51.992;5.896;2023-04-03T15:55:05;1.40;;;1.02;;
56239;SDS011;42154;51.992;5.896;2023-04-03T15:57:31;5.43;;;1.10;;
56239;SDS011;42154;51.992;5.896;2023-04-03T15:59:57;3.25;;;1.20;;
56239;SDS011;42154;51.992;5.896;2023-04-03T16:02:23;2.95;;;1.23;;
56239;SDS011;42154;51.992;5.896;2023-04-03T16:04:49;3.00;;;1.05;;
56239;SDS011;42154;51.992;5.896;2023-04-03T16:07:15;1.70;;;0.88;;
56239;SDS011;42154;51.992;5.896;2023-04-03T16:09:40;2.90;;;1.10;;
56239;SDS011;42154;51.992;5.896;2023-04-03T16:12:06;4.03;;;2.22;;
56239;SDS011;42154;51.992;5.896;2023-04-03T16:14:32;3.90;;;1.35;;
56239;SDS011;42154;51.992;5.896;2023-04-03T16:16:58;3.42;;;1.50;;
56239;SDS011;42154;51.992;5.896;2023-04-03T16:19:25;3.80;;;1.25;;
56239;SDS011;42154;51.992;5.896;2023-04-03T16:21:50;4.60;;;1.40;;
56239;SDS011;42154;51.992;5.896;2023-04-03T16:24:17;3.55;;;1.23;;
56239;SDS011;42154;51.992;5.896;2023-04-03T16:26:43;3.33;;;1.17;;
56239;SDS011;42154;51.992;5.896;2023-04-03T16:29:09;3.15;;;1.20;;
56239;SDS011;42154;51.992;5.896;2023-04-03T16:31:34;2.30;;;0.98;;
56239;SDS011;42154;51.992;5.896;2023-04-03T16:34:00;2.13;;;1.08;;
56239;SDS011;42154;51.992;5.896;2023-04-03T16:36:26;4.47;;;1.20;;
56239;SDS011;42154;51.992;5.896;2023-04-03T16:38:52;2.53;;;1.17;;
56239;SDS011;42154;51.992;5.896;2023-04-03T16:41:17;4.20;;;1.27;;
56239;SDS011;42154;51.992;5.896;2023-04-03T16:43:43;2.85;;;1.35;;
56239;SDS011;42154;51.992;5.896;2023-04-03T16:46:09;2.35;;;1.10;;
56239;SDS011;42154;51.992;5.896;2023-04-03T16:48:35;2.20;;;1.17;;